Time;durP1;ratioP1;P1;durP2;ratioP2;P2;SDS_P1;SDS_P2;PMS_P1;PMS_P2;Temp;Humidity;BMP_temperature;BMP_pressure;BME280_temperature;BME280_humidity;BME280_pressure;Samples;Min_cycle;Max_cycle;Signal;HPM_P1;HPM_P2
2021/11/15 00:01:44;;;;;;;93.40;53.30;;;;;;;5.28;99.28;100005.58;102117;1317;68973;-76
2021/11/15 00:04:16;;;;;;;89.50;52.70;;;;;;;5.28;99.29;100010.00;102018;1320;73406;-76
2021/11/15 00:06:43;;;;;;;85.60;52.80;;;;;;;5.27;99.42;100009.86;101753;1316;61420;-76
2021/11/15 00:09:10;;;;;;;96.90;55.10;;;;;;;5.25;99.43;100011.83;101778;1317;62926;-76
2021/11/15 00:11:37;;;;;;;98.60;55.20;;;;;;;5.26;99.42;100017.28;101815;1316;75923;-76
2021/11/15 00:14:05;;;;;;;96.10;54.70;;;;;;;5.26;99.49;100023.80;101819;1316;70563;-76
2021/11/15 00:16:32;;;;;;;92.70;52.60;;;;;;;5.25;99.48;100022.25;101741;1316;74621;-76
2021/11/15 00:18:59;;;;;;;93.40;53.00;;;;;;;5.25;99.55;100021.38;101719;1319;61414;-76
2021/11/15 00:21:26;;;;;;;96.70;52.80;;;;;;;5.23;99.53;100018.24;101802;1316;61488;-76
2021/11/15 00:23:53;;;;;;;95.80;53.70;;;;;;;5.22;99.55;100021.79;102061;1316;76445;-76
2021/11/15 00:26:20;;;;;;;100.90;58.00;;;;;;;5.21;99.60;100021.66;102268;1316;69642;-76
2021/11/15 00:28:47;;;;;;;91.50;51.20;;;;;;;5.20;99.67;100023.27;102216;1310;73443;-76
2021/11/15 00:31:13;;;;;;;93.30;53.40;;;;;;;5.19;99.62;100023.83;102248;1310;61492;-76
2021/11/15 00:33:40;;;;;;;94.10;54.70;;;;;;;5.18;99.66;100024.89;102249;1310;61400;-76
2021/11/15 00:36:07;;;;;;;87.10;55.00;;;;;;;5.18;99.76;100026.67;102232;1317;75477;-76
2021/11/15 00:38:33;;;;;;;94.70;52.80;;;;;;;5.17;99.78;100023.17;102305;1316;70549;-76
2021/11/15 00:41:00;;;;;;;94.40;53.00;;;;;;;5.16;99.74;100023.38;102218;1316;74495;-75
2021/11/15 00:43:26;;;;;;;95.10;53.40;;;;;;;5.14;99.86;100026.77;102233;1316;61197;-76
2021/11/15 00:45:54;;;;;;;100.60;53.40;;;;;;;5.13;99.85;100028.39;101947;1316;61427;-76
2021/11/15 00:48:21;;;;;;;91.70;52.90;;;;;;;5.12;99.93;100030.71;101864;1316;75487;-76
2021/11/15 00:50:48;;;;;;;100.50;53.80;;;;;;;5.11;99.95;100035.15;102267;1314;71289;-76
2021/11/15 00:53:14;;;;;;;93.70;53.20;;;;;;;5.11;99.99;100030.38;102270;1313;74580;-76
2021/11/15 00:55:41;;;;;;;94.10;53.80;;;;;;;5.10;100.00;100028.84;102394;1314;61368;-76
2021/11/15 00:58:08;;;;;;;94.70;51.80;;;;;;;5.09;100.00;100033.80;102244;1316;61397;-76
2021/11/15 01:00:37;;;;;;;93.10;52.80;;;;;;;5.07;100.00;100035.27;101973;1318;75667;-76
2021/11/15 01:03:08;;;;;;;93.90;52.90;;;;;;;5.05;100.00;100034.96;102267;1310;70558;-76
2021/11/15 01:05:37;;;;;;;95.60;55.20;;;;;;;5.04;100.00;100039.40;101848;1311;71846;-77
2021/11/15 01:08:05;;;;;;;86.00;48.90;;;;;;;5.03;100.00;100037.48;102239;1311;61395;-76
2021/11/15 01:10:33;;;;;;;96.70;54.70;;;;;;;5.01;100.00;100041.23;102233;1317;62377;-75
2021/11/15 01:13:00;;;;;;;92.40;54.60;;;;;;;4.99;100.00;100036.34;102238;1310;75556;-75
2021/11/15 01:15:30;;;;;;;92.00;51.80;;;;;;;4.98;100.00;100039.56;102239;1316;69561;-76
2021/11/15 01:17:57;;;;;;;92.80;49.70;;;;;;;4.96;100.00;100041.02;102261;1317;74486;-76
2021/11/15 01:20:27;;;;;;;92.90;50.50;;;;;;;4.94;100.00;100039.11;102232;1310;61332;-76
2021/11/15 01:22:54;;;;;;;95.60;52.90;;;;;;;4.93;100.00;100039.71;102264;1310;62145;-76
2021/11/15 01:25:21;;;;;;;93.50;52.60;;;;;;;4.91;100.00;100039.20;102239;1317;75738;-76
2021/11/15 01:27:48;;;;;;;90.00;50.30;;;;;;;4.90;100.00;100039.41;102244;1313;69485;-76
2021/11/15 01:30:17;;;;;;;98.10;54.10;;;;;;;4.88;100.00;100038.41;102239;1314;74477;-76
2021/11/15 01:32:45;;;;;;;101.80;54.70;;;;;;;4.87;100.00;100037.20;102259;1313;61305;-76
2021/11/15 01:35:12;;;;;;;100.60;54.40;;;;;;;4.88;100.00;100036.48;102283;1310;61418;-76
2021/11/15 01:37:40;;;;;;;95.20;54.70;;;;;;;4.87;100.00;100043.73;102192;1314;75496;-76
2021/11/15 01:40:11;;;;;;;99.70;55.00;;;;;;;4.87;100.00;100049.35;102283;1317;69600;-76
2021/11/15 01:42:37;;;;;;;;;;;;;;;4.86;100.00;100043.58;102303;1316;74641;-76
2021/11/15 01:45:06;;;;;;;106.20;55.70;;;;;;;4.86;100.00;100044.97;101939;1316;61497;-76
2021/11/15 01:47:34;;;;;;;108.90;58.10;;;;;;;4.86;100.00;100047.80;102261;1316;62223;-77
2021/11/15 01:50:04;;;;;;;103.80;55.00;;;;;;;4.86;100.00;100047.98;102358;1310;75340;-76
2021/11/15 01:52:31;;;;;;;104.20;56.60;;;;;;;4.86;100.00;100054.30;102430;1314;69763;-76
2021/11/15 01:54:58;;;;;;;92.50;51.50;;;;;;;4.86;100.00;100053.80;102069;1317;73540;-76
2021/11/15 01:57:25;;;;;;;108.30;56.20;;;;;;;4.86;100.00;100055.02;102346;1317;61313;-76
2021/11/15 01:59:51;;;;;;;94.10;54.30;;;;;;;4.86;100.00;100061.55;102366;1310;61260;-76
2021/11/15 02:02:19;;;;;;;105.50;55.80;;;;;;;4.86;100.00;100059.08;102397;1310;76497;-76
2021/11/15 02:04:46;;;;;;;103.00;54.30;;;;;;;4.86;100.00;100061.55;101971;1316;70622;-76
2021/11/15 02:07:13;;;;;;;98.60;52.50;;;;;;;4.85;100.00;100064.20;102336;1310;74046;-76
2021/11/15 02:09:40;;;;;;;102.20;54.40;;;;;;;4.85;100.00;100064.04;102334;1310;61336;-77
2021/11/15 02:12:07;;;;;;;93.90;54.00;;;;;;;4.85;100.00;100062.45;102257;1316;61312;-77
2021/11/15 02:14:34;;;;;;;98.70;55.20;;;;;;;4.84;100.00;100057.36;102262;1316;76507;-76
2021/11/15 02:17:00;;;;;;;98.60;54.30;;;;;;;4.83;100.00;100060.02;102287;1316;69702;-76
2021/11/15 02:19:27;;;;;;;96.30;51.30;;;;;;;4.83;100.00;100059.70;102202;1310;71567;-76
2021/11/15 02:21:54;;;;;;;96.30;52.80;;;;;;;4.81;100.00;100060.06;102250;1318;61335;-76
2021/11/15 02:24:23;;;;;;;99.40;55.50;;;;;;;4.80;100.00;100061.67;102288;1316;61218;-76
2021/11/15 02:26:50;;;;;;;91.70;51.10;;;;;;;4.80;100.00;100060.62;102262;1316;76445;-78
2021/11/15 02:29:17;;;;;;;100.10;50.30;;;;;;;4.80;100.00;100062.05;102401;1310;69837;-75
2021/11/15 02:31:43;;;;;;;101.90;54.70;;;;;;;4.80;100.00;100064.16;102343;1316;73482;-75
2021/11/15 02:34:11;;;;;;;89.90;50.50;;;;;;;4.80;100.00;100065.38;102463;1310;61305;-76
2021/11/15 02:36:41;;;;;;;96.20;53.10;;;;;;;4.80;100.00;100065.55;102249;1316;62370;-76
2021/11/15 02:39:08;;;;;;;94.80;51.50;;;;;;;4.81;100.00;100065.01;102303;1317;76580;-77
2021/11/15 02:41:35;;;;;;;96.20;51.30;;;;;;;4.82;100.00;100064.47;101871;1320;70272;-76
2021/11/15 02:44:05;;;;;;;89.10;50.20;;;;;;;4.82;100.00;100064.48;101814;1316;74548;-75
2021/11/15 02:46:34;;;;;;;94.00;51.70;;;;;;;4.82;100.00;100065.68;102349;1310;61333;-76
2021/11/15 02:49:03;;;;;;;87.80;50.30;;;;;;;4.84;100.00;100064.75;102352;1312;61205;-76
2021/11/15 02:51:30;;;;;;;86.80;49.60;;;;;;;4.84;100.00;100066.67;102250;1316;75345;-76
2021/11/15 02:53:56;;;;;;;92.60;53.10;;;;;;;4.86;100.00;100064.02;102239;1316;69505;-76
2021/11/15 02:56:23;;;;;;;84.70;49.70;;;;;;;4.86;100.00;100064.34;102281;1316;74568;-75
2021/11/15 02:58:50;;;;;;;82.10;48.80;;;;;;;4.87;100.00;100068.21;102326;1316;61329;-75
2021/11/15 03:01:20;;;;;;;83.10;46.60;;;;;;;4.87;100.00;100071.36;102303;1316;61885;-75
2021/11/15 03:03:47;;;;;;;;;;;;;;;4.86;100.00;100069.98;102285;1316;75463;-76
2021/11/15 03:06:14;;;;;;;82.90;45.90;;;;;;;4.84;100.00;100068.62;102100;1316;69592;-76
2021/11/15 03:08:40;;;;;;;77.70;45.00;;;;;;;4.84;100.00;100072.15;102264;1317;72429;-77
2021/11/15 03:11:08;;;;;;;80.50;46.10;;;;;;;4.82;100.00;100076.61;102236;1316;61307;-76
2021/11/15 03:13:44;;;;;;;80.60;45.60;;;;;;;4.81;100.00;100076.98;102293;1316;62007;-75
2021/11/15 03:16:11;;;;;;;83.60;45.80;;;;;;;4.80;100.00;100081.58;102312;1317;74794;-75
2021/11/15 03:18:40;;;;;;;84.30;47.90;;;;;;;4.80;100.00;100080.54;102089;1314;69509;-75
2021/11/15 03:21:20;;;;;;;84.80;48.00;;;;;;;4.79;100.00;100076.33;102396;1316;74423;-77
2021/11/15 03:23:52;;;;;;;82.20;47.20;;;;;;;4.78;100.00;100075.98;103316;1311;61337;-76
2021/11/15 03:26:20;;;;;;;88.70;48.00;;;;;;;4.78;100.00;100076.89;103800;1316;61363;-76
2021/11/15 03:28:49;;;;;;;84.30;45.90;;;;;;;4.77;100.00;100074.27;103733;1316;75476;-75
2021/11/15 03:31:20;;;;;;;89.80;48.60;;;;;;;4.77;100.00;100077.98;102646;1316;68457;-75
2021/11/15 03:33:49;;;;;;;82.60;47.50;;;;;;;4.77;100.00;100078.31;102332;1316;73209;-76
2021/11/15 03:36:16;;;;;;;89.70;48.20;;;;;;;4.77;100.00;100076.91;102435;1316;61355;-76
2021/11/15 03:38:44;;;;;;;87.70;47.40;;;;;;;4.77;100.00;100081.48;102373;1317;61334;-77
2021/11/15 03:41:11;;;;;;;84.80;50.30;;;;;;;4.77;100.00;100079.38;102329;1316;76476;-76
2021/11/15 03:43:38;;;;;;;88.40;50.10;;;;;;;4.75;100.00;100081.91;102260;1317;69121;-75
2021/11/15 03:46:06;;;;;;;91.00;49.80;;;;;;;4.74;100.00;100081.73;102281;1317;73528;-75
2021/11/15 03:48:33;;;;;;;93.10;48.90;;;;;;;4.73;100.00;100081.44;102292;1316;61428;-75
2021/11/15 03:51:00;;;;;;;89.90;50.30;;;;;;;4.71;100.00;100071.97;102255;1316;62212;-75
2021/11/15 03:53:31;;;;;;;91.90;49.70;;;;;;;4.70;100.00;100077.79;102259;1317;74446;-75
2021/11/15 03:55:57;;;;;;;93.30;49.80;;;;;;;4.69;100.00;100075.69;102288;1316;70482;-76
2021/11/15 03:58:24;;;;;;;90.10;49.30;;;;;;;4.67;100.00;100073.48;102301;1310;74594;-75
2021/11/15 04:00:51;;;;;;;85.10;48.00;;;;;;;4.66;100.00;100068.77;102322;1316;61264;-75
2021/11/15 04:03:27;;;;;;;93.50;49.40;;;;;;;4.66;100.00;100071.58;102407;1316;61361;-76
2021/11/15 04:05:58;;;;;;;87.30;49.60;;;;;;;4.65;100.00;100068.07;102252;1317;75566;-76
2021/11/15 04:08:25;;;;;;;81.10;43.30;;;;;;;4.65;100.00;100070.71;102269;1316;69992;-75
2021/11/15 04:10:52;;;;;;;82.80;44.80;;;;;;;4.62;100.00;100063.92;102271;1310;74916;-77
2021/11/15 04:13:31;;;;;;;94.90;48.50;;;;;;;4.60;100.00;100060.63;102318;1310;61346;-76
2021/11/15 04:16:02;;;;;;;92.80;49.00;;;;;;;4.58;100.00;100061.91;102524;1316;61234;-77
2021/11/15 04:18:34;;;;;;;83.60;47.80;;;;;;;4.58;100.00;100062.09;102296;1316;74844;-76
2021/11/15 04:21:02;;;;;;;85.10;46.40;;;;;;;4.57;100.00;100064.05;102332;1316;68626;-76
2021/11/15 04:23:29;;;;;;;83.30;46.60;;;;;;;4.54;100.00;100067.27;102307;1310;74495;-76
2021/11/15 04:25:55;;;;;;;89.80;48.60;;;;;;;4.52;100.00;100070.15;102178;1314;61395;-76
2021/11/15 04:28:22;;;;;;;88.00;48.30;;;;;;;4.51;100.00;100066.48;102390;1317;61508;-76
2021/11/15 04:30:48;;;;;;;84.70;47.60;;;;;;;4.50;100.00;100066.67;102467;1316;76517;-76
2021/11/15 04:33:15;;;;;;;86.30;47.90;;;;;;;4.49;100.00;100064.23;102530;1316;69534;-77
2021/11/15 04:35:42;;;;;;;85.50;49.00;;;;;;;4.48;100.00;100059.00;102545;1316;74775;-76
2021/11/15 04:38:09;;;;;;;88.10;49.70;;;;;;;4.49;100.00;100063.20;102152;1317;61511;-75
2021/11/15 04:40:37;;;;;;;88.00;50.70;;;;;;;4.47;100.00;100062.54;102428;1318;149296;-77
2021/11/15 04:43:05;;;;;;;93.60;51.40;;;;;;;4.47;100.00;100061.15;102674;1316;76328;-75
2021/11/15 04:45:32;;;;;;;88.40;49.00;;;;;;;4.45;100.00;100057.31;102725;1316;69590;-76
2021/11/15 04:47:59;;;;;;;82.00;46.70;;;;;;;4.43;100.00;100058.77;102929;1314;74652;-75
2021/11/15 04:50:26;;;;;;;88.70;48.00;;;;;;;4.44;100.00;100060.33;103048;1316;61322;-76
2021/11/15 04:52:53;;;;;;;82.50;48.60;;;;;;;4.42;100.00;100059.14;102815;1317;62354;-76
2021/11/15 04:55:22;;;;;;;80.40;47.10;;;;;;;4.41;100.00;100060.40;104114;1317;75783;-76
2021/11/15 04:57:49;;;;;;;86.30;48.40;;;;;;;4.40;100.00;100061.13;104985;1317;69563;-76
2021/11/15 05:00:21;;;;;;;80.80;46.70;;;;;;;4.39;100.00;100059.03;104622;1316;73392;-75
2021/11/15 05:02:48;;;;;;;84.10;47.80;;;;;;;4.38;100.00;100061.15;104278;1316;61362;-76
2021/11/15 05:05:17;;;;;;;71.20;42.10;;;;;;;4.39;100.00;100059.90;103944;1314;61225;-77
2021/11/15 05:07:45;;;;;;;85.90;47.40;;;;;;;4.39;100.00;100057.81;102448;1315;76337;-75
2021/11/15 05:10:12;;;;;;;82.30;47.00;;;;;;;4.37;100.00;100058.38;102473;1316;68456;-77
2021/11/15 05:12:39;;;;;;;76.40;46.40;;;;;;;4.35;100.00;100058.95;102417;1316;73448;-77
2021/11/15 05:15:09;;;;;;;80.30;44.90;;;;;;;4.33;100.00;100054.61;102409;1317;61324;-76
2021/11/15 05:17:37;;;;;;;75.50;43.60;;;;;;;4.32;100.00;100058.86;102324;1316;61711;-76
2021/11/15 05:20:06;;;;;;;76.00;44.00;;;;;;;4.28;100.00;100060.36;102263;1318;75671;-76
2021/11/15 05:22:33;;;;;;;85.90;46.40;;;;;;;4.25;100.00;100062.89;101886;1317;69198;-76
2021/11/15 05:24:59;;;;;;;73.90;42.50;;;;;;;4.23;100.00;100062.94;102262;1311;74000;-77
2021/11/15 05:27:26;;;;;;;80.30;45.30;;;;;;;4.23;100.00;100062.24;101868;1318;61401;-77
2021/11/15 05:29:53;;;;;;;79.60;46.80;;;;;;;4.20;100.00;100055.45;102293;1316;61373;-76
2021/11/15 05:32:19;;;;;;;81.10;44.90;;;;;;;4.19;100.00;100053.54;102322;1310;76471;-75
2021/11/15 05:34:46;;;;;;;76.40;45.30;;;;;;;4.18;100.00;100052.15;101783;1316;67700;-76
2021/11/15 05:37:14;;;;;;;75.00;42.30;;;;;;;4.18;100.00;100054.44;102211;1311;73974;-77
2021/11/15 05:39:43;;;;;;;80.70;45.60;;;;;;;4.16;100.00;100055.00;102313;1316;61429;-76
2021/11/15 05:42:11;;;;;;;74.60;43.40;;;;;;;4.16;100.00;100061.34;102304;1314;61326;-75
2021/11/15 05:44:37;;;;;;;83.50;45.60;;;;;;;4.15;100.00;100064.16;102252;1317;75342;-77
2021/11/15 05:47:04;;;;;;;77.60;43.80;;;;;;;4.15;100.00;100071.20;102289;1310;69662;-77
2021/11/15 05:49:31;;;;;;;69.30;42.10;;;;;;;4.16;100.00;100071.36;101903;1316;73499;-77
2021/11/15 05:51:57;;;;;;;71.50;41.70;;;;;;;4.16;100.00;100068.37;101963;1317;61226;-76
2021/11/15 05:54:24;;;;;;;70.30;39.60;;;;;;;4.16;100.00;100063.09;102342;1310;61323;-75
2021/11/15 05:56:51;;;;;;;69.90;42.10;;;;;;;4.16;100.00;100066.44;102310;1316;74072;-76
2021/11/15 05:59:17;;;;;;;72.80;41.30;;;;;;;4.16;100.00;100066.98;102218;1310;68467;-76
2021/11/15 06:01:44;;;;;;;75.00;41.00;;;;;;;4.17;100.00;100068.90;102227;1313;73566;-77
2021/11/15 06:04:11;;;;;;;69.90;41.10;;;;;;;4.17;100.00;100074.34;102333;1310;61215;-76
2021/11/15 06:06:38;;;;;;;65.30;38.00;;;;;;;4.18;100.00;100078.70;102398;1316;62205;-76
2021/11/15 06:09:06;;;;;;;68.60;42.20;;;;;;;4.19;100.00;100084.32;102396;1316;74827;-75
2021/11/15 06:11:33;;;;;;;62.00;35.80;;;;;;;4.20;100.00;100086.23;102234;1311;69275;-75
2021/11/15 06:13:59;;;;;;;63.00;38.50;;;;;;;4.21;100.00;100086.91;102257;1316;73238;-76
2021/11/15 06:16:26;;;;;;;65.50;37.80;;;;;;;4.22;100.00;100091.46;102231;1310;61800;-76
2021/11/15 06:18:52;;;;;;;66.70;38.90;;;;;;;4.22;100.00;100097.26;102195;1316;62975;-75
2021/11/15 06:21:19;;;;;;;67.40;39.00;;;;;;;4.24;100.00;100097.73;102302;1317;76151;-76
2021/11/15 06:23:46;;;;;;;67.90;38.10;;;;;;;4.26;100.00;100098.23;102236;1310;69339;-76
2021/11/15 06:26:12;;;;;;;57.30;35.60;;;;;;;4.27;100.00;100099.79;102259;1316;74026;-76
2021/11/15 06:28:40;;;;;;;65.50;36.40;;;;;;;4.28;100.00;100099.23;102235;1316;61273;-76
2021/11/15 06:31:11;;;;;;;61.50;36.70;;;;;;;4.29;100.00;100100.97;102207;1316;61308;-77
2021/11/15 06:33:38;;;;;;;66.90;37.30;;;;;;;4.30;100.00;100095.51;101876;1316;76662;-76
2021/11/15 06:36:04;;;;;;;62.60;36.40;;;;;;;4.31;100.00;100101.27;102239;1310;70589;-75
2021/11/15 06:38:32;;;;;;;66.00;38.30;;;;;;;4.32;100.00;100101.26;102214;1318;73525;-78
2021/11/15 06:40:58;;;;;;;64.70;38.20;;;;;;;4.33;100.00;100100.70;102255;1310;61326;-76
2021/11/15 06:43:25;;;;;;;63.80;37.00;;;;;;;4.35;100.00;100104.51;102227;1310;61321;-76
2021/11/15 06:45:52;;;;;;;61.00;37.80;;;;;;;4.36;100.00;100100.09;102220;1316;75276;-76
2021/11/15 06:48:19;;;;;;;58.10;35.50;;;;;;;4.37;100.00;100104.81;102221;1310;69145;-76
2021/11/15 06:50:45;;;;;;;62.30;37.20;;;;;;;4.39;100.00;100105.83;102283;1314;73252;-77
2021/11/15 06:53:12;;;;;;;68.40;38.90;;;;;;;4.43;100.00;100109.28;102188;1310;61345;-76
2021/11/15 06:55:39;;;;;;;58.90;35.60;;;;;;;4.45;100.00;100110.11;102257;1310;62283;-75
2021/11/15 06:58:05;;;;;;;59.10;36.70;;;;;;;4.49;100.00;100112.11;102227;1310;76029;-75
2021/11/15 07:00:32;;;;;;;66.20;38.50;;;;;;;4.51;100.00;100116.29;102217;1310;69524;-77
2021/11/15 07:02:59;;;;;;;57.70;34.10;;;;;;;4.53;100.00;100115.89;102216;1311;73656;-76
2021/11/15 07:05:26;;;;;;;59.40;35.10;;;;;;;4.55;100.00;100112.32;102226;1310;61383;-77
2021/11/15 07:07:54;;;;;;;59.00;34.90;;;;;;;4.57;100.00;100114.55;102261;1310;61307;-76
2021/11/15 07:10:22;;;;;;;55.50;34.90;;;;;;;4.59;100.00;100116.95;102221;1316;76509;-76
2021/11/15 07:12:50;;;;;;;56.90;35.20;;;;;;;4.63;100.00;100117.23;102266;1310;70056;-75
2021/11/15 07:15:18;;;;;;;59.00;35.20;;;;;;;4.66;100.00;100119.45;102312;1317;74472;-77
2021/11/15 07:17:46;;;;;;;54.90;36.20;;;;;;;4.69;100.00;100121.11;102225;1313;61294;-75
2021/11/15 07:20:13;;;;;;;57.10;34.50;;;;;;;4.73;100.00;100120.14;102285;1314;61288;-75
2021/11/15 07:22:40;;;;;;;58.50;34.60;;;;;;;4.77;100.00;100114.77;102060;1317;76443;-76
2021/11/15 07:25:07;;;;;;;54.10;34.40;;;;;;;4.81;100.00;100117.64;101854;1317;69540;-76
2021/11/15 07:27:34;;;;;;;45.70;30.20;;;;;;;4.87;100.00;100115.05;101945;1316;73481;-70
2021/11/15 07:30:02;;;;;;;56.00;34.00;;;;;;;4.89;100.00;100117.27;102913;1316;61257;-83
2021/11/15 07:32:29;;;;;;;57.40;34.20;;;;;;;4.93;100.00;100118.59;102537;1319;61294;-84
2021/11/15 07:34:55;;;;;;;55.30;33.70;;;;;;;4.97;100.00;100123.23;102253;1314;75457;-74
2021/11/15 07:37:22;;;;;;;56.60;34.60;;;;;;;4.98;100.00;100121.29;102452;1316;68606;-85
2021/11/15 07:39:49;;;;;;;52.20;34.50;;;;;;;4.97;100.00;100121.46;103052;1310;71541;-87
2021/11/15 07:42:17;;;;;;;53.50;33.50;;;;;;;4.98;100.00;100124.96;104254;1310;61199;-73
2021/11/15 07:44:45;;;;;;;50.20;33.60;;;;;;;4.98;100.00;100123.02;102365;1316;61298;-84
2021/11/15 07:47:15;;;;;;;50.20;32.40;;;;;;;4.99;100.00;100120.71;102238;1316;76746;-83
2021/11/15 07:49:43;;;;;;;56.30;34.20;;;;;;;4.99;100.00;100119.13;102343;1316;70819;-83
2021/11/15 07:52:11;;;;;;;61.40;34.00;;;;;;;5.01;100.00;100117.86;102952;1311;72864;-88
2021/11/15 07:54:38;;;;;;;53.90;33.80;;;;;;;5.03;100.00;100115.51;103088;1310;61380;-80
2021/11/15 07:57:06;;;;;;;50.40;31.80;;;;;;;5.04;100.00;100115.65;102563;1313;61734;-83
2021/11/15 07:59:33;;;;;;;49.20;31.70;;;;;;;5.07;100.00;100120.32;102477;1314;75908;-85
2021/11/15 08:01:59;;;;;;;49.30;33.20;;;;;;;5.10;100.00;100119.38;102328;1310;68951;-78
2021/11/15 08:04:26;;;;;;;49.50;32.70;;;;;;;5.13;100.00;100118.59;102247;1310;73438;-76
2021/11/15 08:06:53;;;;;;;53.80;32.80;;;;;;;5.16;100.00;100127.14;102274;1313;62141;-77
2021/11/15 08:09:20;;;;;;;53.40;33.90;;;;;;;5.21;100.00;100126.83;102270;1313;61718;-77
2021/11/15 08:11:51;;;;;;;49.00;31.70;;;;;;;5.25;100.00;100129.52;102336;1318;76516;-76
2021/11/15 08:14:18;;;;;;;49.10;30.80;;;;;;;5.29;100.00;100131.89;102193;1316;70256;-79
2021/11/15 08:16:50;;;;;;;53.20;33.80;;;;;;;5.32;100.00;100127.59;102242;1310;74432;-77
2021/11/15 08:19:17;;;;;;;50.60;32.30;;;;;;;5.34;100.00;100122.44;101925;1313;61421;-76
2021/11/15 08:21:45;;;;;;;51.50;33.40;;;;;;;5.39;100.00;100125.11;102290;1314;61305;-76
2021/11/15 08:24:17;;;;;;;53.60;33.00;;;;;;;5.43;100.00;100124.28;102244;1313;76446;-76
2021/11/15 08:26:56;;;;;;;48.20;32.10;;;;;;;5.45;100.00;100124.75;102266;1316;70185;-76
2021/11/15 08:29:25;;;;;;;52.30;34.60;;;;;;;5.49;100.00;100119.36;102246;1311;74930;-76
2021/11/15 08:32:00;;;;;;;51.70;34.70;;;;;;;5.54;100.00;100117.48;102328;1314;61353;-76
2021/11/15 08:34:27;;;;;;;54.20;32.70;;;;;;;5.58;100.00;100119.12;102259;1310;62432;-76
2021/11/15 08:36:53;;;;;;;46.70;31.60;;;;;;;5.61;100.00;100125.38;101881;1316;75518;-76
2021/11/15 08:39:22;;;;;;;45.80;30.80;;;;;;;5.65;100.00;100125.80;102272;1310;69467;-76
2021/11/15 08:41:54;;;;;;;50.20;32.40;;;;;;;5.70;99.99;100126.70;102272;1310;74952;-77
2021/11/15 08:44:22;;;;;;;51.50;32.40;;;;;;;5.74;99.64;100126.94;102270;1314;61416;-75
2021/11/15 08:46:52;;;;;;;49.10;32.00;;;;;;;5.76;99.46;100133.07;102273;1310;62158;-76
2021/11/15 08:49:22;;;;;;;55.70;38.30;;;;;;;5.77;99.42;100134.28;102269;1311;76666;-76
2021/11/15 08:51:49;;;;;;;63.90;42.40;;;;;;;5.78;99.35;100136.88;102182;1316;69678;-75
2021/11/15 08:54:19;;;;;;;64.50;40.40;;;;;;;5.78;99.23;100134.39;102528;1311;73145;-76
2021/11/15 08:56:48;;;;;;;46.60;32.30;;;;;;;5.77;99.21;100129.33;102723;1317;61301;-77
2021/11/15 08:59:16;;;;;;;61.80;38.40;;;;;;;5.77;99.02;100128.27;103127;1310;61499;-79
2021/11/15 09:01:43;;;;;;;52.70;34.20;;;;;;;5.79;99.16;100127.16;103354;1313;75548;-77
2021/11/15 09:04:11;;;;;;;45.40;31.10;;;;;;;5.82;99.01;100129.88;103047;1310;70516;-77
2021/11/15 09:06:39;;;;;;;47.20;30.70;;;;;;;5.84;98.84;100133.52;101959;1316;74812;-78
2021/11/15 09:09:14;;;;;;;47.30;30.90;;;;;;;5.86;98.61;100133.14;102253;1310;61335;-76
2021/11/15 09:11:51;;;;;;;47.40;29.80;;;;;;;5.85;98.18;100132.81;101982;1316;61862;-77
2021/11/15 09:14:20;;;;;;;46.60;29.70;;;;;;;5.83;98.36;100136.91;102440;1314;76746;-78
2021/11/15 09:16:48;;;;;;;51.30;32.30;;;;;;;5.85;98.52;100133.16;102394;1313;69389;-77
2021/11/15 09:19:17;;;;;;;49.60;30.90;;;;;;;5.87;98.51;100137.16;102425;1311;73615;-76
2021/11/15 09:21:45;;;;;;;53.80;33.30;;;;;;;5.90;98.49;100141.64;102281;1317;61296;-77
2021/11/15 09:24:12;;;;;;;49.50;32.40;;;;;;;5.92;98.26;100143.34;102339;1314;62118;-77
2021/11/15 09:26:39;;;;;;;51.80;32.20;;;;;;;5.93;98.14;100145.09;102311;1310;74995;-77
2021/11/15 09:29:07;;;;;;;48.60;31.40;;;;;;;5.94;97.97;100145.60;102218;1316;69619;-76
2021/11/15 09:31:34;;;;;;;47.90;31.40;;;;;;;5.96;97.89;100148.56;102262;1310;74756;-76
2021/11/15 09:34:02;;;;;;;55.60;35.70;;;;;;;5.95;97.86;100146.46;102082;1317;61459;-77
2021/11/15 09:36:29;;;;;;;48.30;31.90;;;;;;;5.99;97.70;100150.08;102235;1310;61304;-76
2021/11/15 09:38:57;;;;;;;50.20;32.20;;;;;;;5.97;97.58;100150.44;102241;1314;76563;-77
2021/11/15 09:41:26;;;;;;;51.00;34.80;;;;;;;6.02;97.84;100148.92;102237;1310;69454;-76
2021/11/15 09:43:53;;;;;;;49.40;32.50;;;;;;;6.06;97.77;100147.73;101870;1313;74462;-77
2021/11/15 09:46:24;;;;;;;46.80;33.10;;;;;;;6.10;97.51;100141.25;102383;1310;61337;-77
2021/11/15 09:49:03;;;;;;;49.70;34.00;;;;;;;6.12;97.50;100137.14;102357;1314;62430;-77
2021/11/15 09:51:32;;;;;;;51.00;32.90;;;;;;;6.19;97.46;100128.11;102260;1310;76825;-76
2021/11/15 09:54:02;;;;;;;53.00;32.00;;;;;;;6.23;97.27;100128.88;102332;1310;69497;-77
2021/11/15 09:56:28;;;;;;;;;;;;;;;6.27;97.07;100130.67;102350;1310;74732;-77
2021/11/15 09:58:55;;;;;;;48.20;31.60;;;;;;;6.28;96.81;100125.35;102300;1313;61323;-77
2021/11/15 10:01:23;;;;;;;50.20;33.00;;;;;;;6.31;96.84;100125.44;102465;1317;61238;-77
2021/11/15 10:03:50;;;;;;;43.40;29.60;;;;;;;6.34;96.76;100122.33;102438;1311;76417;-78
2021/11/15 10:06:21;;;;;;;50.90;30.70;;;;;;;6.33;96.40;100120.58;102367;1310;70492;-77
2021/11/15 10:08:52;;;;;;;;;;;;;;;6.32;96.45;100119.42;102511;1310;74901;-76
2021/11/15 10:11:21;;;;;;;44.40;28.80;;;;;;;6.32;96.53;100123.31;102391;1313;61336;-78
2021/11/15 10:13:49;;;;;;;45.00;29.30;;;;;;;6.29;96.25;100121.61;102369;1310;62192;-77
2021/11/15 10:16:24;;;;;;;47.30;32.20;;;;;;;6.28;96.37;100121.14;102568;1310;75484;-76
2021/11/15 10:18:54;;;;;;;52.80;32.80;;;;;;;6.27;96.36;100125.37;102543;1310;70468;-76
2021/11/15 10:21:33;;;;;;;51.30;31.20;;;;;;;6.25;96.30;100119.98;102562;1310;73543;-77
2021/11/15 10:24:04;;;;;;;51.20;32.10;;;;;;;6.25;96.42;100127.20;102531;1311;61267;-76
2021/11/15 10:26:39;;;;;;;46.60;30.80;;;;;;;6.28;96.31;100123.25;102837;1311;62212;-77
2021/11/15 10:29:20;;;;;;;49.90;32.80;;;;;;;6.29;96.31;100121.98;102863;1309;76416;-76
2021/11/15 10:31:49;;;;;;;46.30;32.30;;;;;;;6.31;96.32;100119.09;103075;1311;69490;-76
2021/11/15 10:34:26;;;;;;;49.70;32.50;;;;;;;6.32;96.12;100122.05;103211;1311;73888;-76
2021/11/15 10:36:57;;;;;;;47.50;30.30;;;;;;;6.32;96.13;100121.72;103391;1311;61354;-76
2021/11/15 10:39:52;;;;;;;51.10;32.60;;;;;;;6.34;96.22;100122.87;103519;1310;61187;-77
2021/11/15 10:42:29;;;;;;;52.50;34.10;;;;;;;6.35;96.15;100119.30;105391;1316;75359;-76
2021/11/15 10:45:08;;;;;;;53.80;33.10;;;;;;;6.38;96.08;100119.23;105465;1310;69825;-75
2021/11/15 10:47:42;;;;;;;54.30;31.70;;;;;;;6.38;96.07;100122.90;105443;1310;73750;-76
2021/11/15 10:50:24;;;;;;;52.90;33.20;;;;;;;6.40;95.95;100124.80;104872;1310;61451;-78
2021/11/15 10:52:57;;;;;;;54.80;33.50;;;;;;;6.36;95.76;100123.31;102467;1310;61331;-77
2021/11/15 10:55:24;;;;;;;55.10;34.40;;;;;;;6.35;95.92;100126.01;102463;1316;74904;-77
2021/11/15 10:57:51;;;;;;;56.10;32.90;;;;;;;6.35;96.02;100119.83;102445;1310;68479;-77
2021/11/15 11:00:40;;;;;;;49.50;32.30;;;;;;;6.37;95.83;100119.77;102106;1317;74099;-77
2021/11/15 11:03:09;;;;;;;54.00;32.70;;;;;;;6.34;95.58;100119.15;102276;1316;61427;-76
2021/11/15 11:05:39;;;;;;;53.10;33.50;;;;;;;6.31;95.60;100120.30;102293;1310;62380;-75
2021/11/15 11:08:21;;;;;;;52.90;33.30;;;;;;;6.29;95.72;100124.98;102275;1316;76560;-76
2021/11/15 11:10:53;;;;;;;54.90;35.20;;;;;;;6.27;95.56;100126.96;102276;1310;69401;-77